< < Back
Terminal Aerodrome Forecast


Current Version              Previous Versions:   1  2  3  4  5  6  7  8  9  

Terminal Aerodrome Forecast

614
FTUS42 KGSP 280529
TAFAND
TAF
KAND 280529Z 2806/2906 06006KT P6SM SCT250
     FM281400 07007KT P6SM SCT060 SCT250
     FM282000 12004KT P6SM BKN060 BKN200
     FM290300 08003KT P6SM VCSH OVC040=

Latest METAR

910
SAUS70 KWBC 281600 RRA
MTRAND
METAR KAND 281556Z AUTO 08005KT 10SM CLR 18/03 A2998 RMK AO2 SLP147
T01780028


USA.gov is the U.S. government's official web portal to all federal, state and local government web resources and services.